SWA2675 KSAN-KDEN
Flight info
| Callsign | SWA2675 |
|---|---|
| Flight time | N/A |
| Altitude | 37000 |
| Route | ZZOOO4 MTBAL EED J236 TBC CRUDD TBARR4 |
| Aircraft | B737/M-SADE2E3GIJ4RWZ/LB1D1 |
Departure
| Time | N/A |
|---|---|
| Airport | San Diego International Airport (KSAN) |
Arrival
| Time | 2026-05-05 02:53 |
|---|---|
| Airport | Denver International Airport (KDEN) |
| Time | Latitude | Longitude | Altitude | Speed | Heading |
|---|---|---|---|---|---|
| 2026-05-05 02:40 | 39.68522 | -104.57755 | 6986 ft | 251 kts | 185° |
| 2026-05-05 02:41 | 39.66896 | -104.58433 | 6973 ft | 245 kts | 217° |
| 2026-05-05 02:41 | 39.65808 | -104.60052 | 6961 ft | 236 kts | 251° |
| 2026-05-05 02:41 | 39.65494 | -104.62079 | 6965 ft | 233 kts | 278° |
| 2026-05-05 02:41 | 39.65955 | -104.64047 | 6957 ft | 227 kts | 307° |
| 2026-05-05 02:42 | 39.67055 | -104.65444 | 6980 ft | 222 kts | 333° |
| 2026-05-05 02:42 | 39.68536 | -104.65934 | 6985 ft | 221 kts | 354° |
| 2026-05-05 02:42 | 39.70077 | -104.66132 | 6985 ft | 222 kts | 356° |
| 2026-05-05 02:42 | 39.71615 | -104.66196 | 6981 ft | 221 kts | 360° |
| 2026-05-05 02:43 | 39.73163 | -104.66177 | 6976 ft | 223 kts | 0° |
| 2026-05-05 02:43 | 39.74718 | -104.66152 | 6978 ft | 223 kts | 0° |
| 2026-05-05 02:43 | 39.76304 | -104.66133 | 6688 ft | 227 kts | 1° |
| 2026-05-05 02:43 | 39.77783 | -104.66117 | 6445 ft | 203 kts | 1° |
| 2026-05-05 02:44 | 39.79131 | -104.66100 | 6130 ft | 184 kts | 3° |
| 2026-05-05 02:44 | 39.80345 | -104.66085 | 6077 ft | 165 kts | 2° |
| 2026-05-05 02:44 | 39.81494 | -104.66091 | 5700 ft | 164 kts | 5° |
| 2026-05-05 02:44 | 39.82574 | -104.66063 | 5446 ft | 150 kts | 6° |
| 2026-05-05 02:45 | 39.83557 | -104.66056 | 5411 ft | 143 kts | 5° |
| 2026-05-05 02:45 | 39.84650 | -104.66049 | 5920 ft | 178 kts | 5° |
| 2026-05-05 02:45 | 39.85435 | -104.65889 | 6163 ft | 200 kts | 15° |
| 2026-05-05 02:46 | 39.86096 | -104.65493 | 6416 ft | 214 kts | 39° |
| 2026-05-05 02:46 | 39.86687 | -104.63741 | 7313 ft | 225 kts | 85° |
| 2026-05-05 02:46 | 39.86354 | -104.61814 | 8323 ft | 225 kts | 111° |
| 2026-05-05 02:47 | 39.85289 | -104.60236 | 8935 ft | 243 kts | 151° |
| 2026-05-05 02:47 | 39.83647 | -104.59728 | 9692 ft | 244 kts | 176° |
| 2026-05-05 02:47 | 39.81937 | -104.59633 | 9628 ft | 247 kts | 177° |
| 2026-05-05 02:47 | 39.80233 | -104.59563 | 9400 ft | 241 kts | 178° |
| 2026-05-05 02:48 | 39.78569 | -104.59508 | 8746 ft | 244 kts | 177° |
| 2026-05-05 02:48 | 39.76882 | -104.59445 | 8373 ft | 236 kts | 177° |
| 2026-05-05 02:48 | 39.75264 | -104.59376 | 7999 ft | 229 kts | 177° |
| 2026-05-05 02:48 | 39.73692 | -104.59306 | 7646 ft | 223 kts | 178° |
| 2026-05-05 02:49 | 39.72223 | -104.59632 | 7273 ft | 216 kts | 212° |
| 2026-05-05 02:49 | 39.71317 | -104.61027 | 6992 ft | 197 kts | 262° |
| 2026-05-05 02:49 | 39.71482 | -104.62614 | 6996 ft | 173 kts | 304° |
| 2026-05-05 02:49 | 39.72148 | -104.63956 | 7075 ft | 177 kts | 307° |
| 2026-05-05 02:50 | 39.72825 | -104.65258 | 7052 ft | 171 kts | 312° |
| 2026-05-05 02:50 | 39.73758 | -104.66019 | 7038 ft | 157 kts | 358° |
| 2026-05-05 02:50 | 39.74868 | -104.66092 | 7041 ft | 170 kts | 358° |
| 2026-05-05 02:50 | 39.76039 | -104.66133 | 6900 ft | 158 kts | 0° |
| 2026-05-05 02:51 | 39.77095 | -104.66125 | 6706 ft | 142 kts | 1° |
| 2026-05-05 02:51 | 39.78052 | -104.66113 | 6518 ft | 133 kts | 360° |
| 2026-05-05 02:51 | 39.78993 | -104.66102 | 6339 ft | 136 kts | 2° |
| 2026-05-05 02:51 | 39.79966 | -104.66090 | 6097 ft | 140 kts | 2° |
| 2026-05-05 02:52 | 39.80941 | -104.66079 | 5876 ft | 144 kts | 4° |
| 2026-05-05 02:52 | 39.81968 | -104.66069 | 5608 ft | 150 kts | 5° |
| 2026-05-05 02:52 | 39.83014 | -104.66064 | 5372 ft | 147 kts | 5° |
| 2026-05-05 02:52 | 39.83939 | -104.66047 | 5364 ft | 117 kts | 8° |
| 2026-05-05 02:53 | 39.84602 | -104.66034 | 5377 ft | 73 kts | 1° |
| 2026-05-05 02:53 | 39.84998 | -104.66038 | 5373 ft | 50 kts | 355° |
| 2026-05-05 02:53 | 39.85315 | -104.66069 | 5383 ft | 41 kts | 355° |
| 2026-05-05 02:53 | 39.85547 | -104.66030 | 5392 ft | 30 kts | 2° |
| 2026-05-05 02:54 | 39.85746 | -104.66019 | 5389 ft | 28 kts | 2° |
| 2026-05-05 02:54 | 39.85932 | -104.66006 | 5391 ft | 26 kts | 3° |
| 2026-05-05 02:54 | 39.86104 | -104.65993 | 5387 ft | 24 kts | 3° |
| 2026-05-05 02:54 | 39.86137 | -104.65990 | 5392 ft | 0 kts | 3° |